Time;durP1;ratioP1;P1;durP2;ratioP2;P2;SDS_P1;SDS_P2;PMS_P1;PMS_P2;Temp;Humidity;BMP_temperature;BMP_pressure;BME280_temperature;BME280_humidity;BME280_pressure;Samples;Min_cycle;Max_cycle;Signal;HPM_P1;HPM_P2
2022/12/09 00:01:18;;;;;;;33.03;23.25;;;6.50;98.20;;;;;;5032074;28;20033;-71
2022/12/09 00:03:44;;;;;;;32.72;23.33;;;6.50;98.20;;;;;;5012846;28;20374;-71
2022/12/09 00:06:24;;;;;;;30.77;22.10;;;6.50;98.20;;;;;;5013032;28;20034;-71
2022/12/09 00:08:50;;;;;;;33.13;23.73;;;6.50;98.10;;;;;;5014410;28;20104;-72
2022/12/09 00:11:17;;;;;;;32.40;22.60;;;6.50;97.90;;;;;;5017041;28;20036;-72
2022/12/09 00:13:43;;;;;;;30.73;22.13;;;6.50;97.90;;;;;;5016948;28;20026;-72
2022/12/09 00:16:13;;;;;;;33.50;22.10;;;6.50;97.90;;;;;;5016918;28;20461;-72
2022/12/09 00:18:39;;;;;;;29.75;21.48;;;6.50;97.90;;;;;;5017065;28;20026;-72
2022/12/09 00:21:20;;;;;;;33.05;21.75;;;6.50;97.90;;;;;;5015557;28;20040;-71
2022/12/09 00:23:46;;;;;;;28.15;20.02;;;6.50;97.90;;;;;;5016291;28;20458;-72
2022/12/09 00:26:13;;;;;;;32.35;21.55;;;6.50;97.80;;;;;;5016857;28;20025;-72
2022/12/09 00:28:39;;;;;;;29.50;20.98;;;6.50;97.60;;;;;;5031705;28;20482;-72
2022/12/09 00:31:06;;;;;;;31.65;21.25;;;6.50;97.70;;;;;;5016787;28;20022;-72
2022/12/09 00:33:33;;;;;;;31.05;21.95;;;6.50;97.70;;;;;;5016398;28;20109;-72
2022/12/09 00:36:08;;;;;;;33.20;22.15;;;6.50;97.70;;;;;;5016331;28;20029;-72
2022/12/09 00:38:34;;;;;;;30.80;21.38;;;6.60;97.70;;;;;;5016600;28;20101;-72
2022/12/09 00:41:00;;;;;;;30.50;20.88;;;6.50;97.60;;;;;;5015010;28;20129;-72
2022/12/09 00:43:26;;;;;;;29.55;20.65;;;6.60;97.60;;;;;;5014924;28;20025;-72
2022/12/09 00:45:52;;;;;;;30.35;20.85;;;6.60;97.60;;;;;;5031113;28;20108;-72
2022/12/09 00:48:17;;;;;;;28.30;20.88;;;6.50;97.60;;;;;;5015745;28;20032;-72
2022/12/09 00:50:44;;;;;;;29.90;21.45;;;6.60;97.60;;;;;;5016021;28;20056;-72
2022/12/09 00:53:10;;;;;;;27.95;20.23;;;6.60;97.50;;;;;;5016009;28;20025;-72
2022/12/09 00:55:36;;;;;;;34.05;20.92;;;6.60;97.50;;;;;;5015148;28;20088;-72
2022/12/09 00:58:01;;;;;;;32.15;21.45;;;6.60;97.50;;;;;;5015647;28;20053;-73
2022/12/09 01:00:27;;;;;;;32.20;21.88;;;6.60;97.50;;;;;;5031046;28;20030;-72
2022/12/09 01:02:53;;;;;;;32.80;21.48;;;6.60;97.60;;;;;;5034410;28;20124;-72
2022/12/09 01:05:18;;;;;;;28.65;21.23;;;6.60;97.60;;;;;;5018501;28;20493;-72
2022/12/09 01:07:44;;;;;;;30.55;21.80;;;6.60;97.70;;;;;;5034769;28;20446;-72
2022/12/09 01:10:10;;;;;;;30.08;21.35;;;6.60;97.70;;;;;;5017752;28;20454;-72
2022/12/09 01:12:36;;;;;;;31.45;21.88;;;6.60;97.70;;;;;;5035406;28;20446;-73
2022/12/09 01:15:02;;;;;;;30.35;22.20;;;6.60;97.70;;;;;;5017822;28;20041;-73
2022/12/09 01:17:28;;;;;;;32.55;21.98;;;6.60;97.70;;;;;;5001264;28;20458;-72
2022/12/09 01:19:53;;;;;;;32.70;21.92;;;6.60;97.60;;;;;;5017093;28;20045;-72
2022/12/09 01:22:19;;;;;;;30.50;21.58;;;6.60;97.60;;;;;;5017316;28;20138;-72
2022/12/09 01:24:45;;;;;;;33.15;22.25;;;6.60;97.60;;;;;;5033949;28;20451;-72
2022/12/09 01:27:10;;;;;;;33.40;23.13;;;6.50;97.60;;;;;;5035539;28;20026;-72
2022/12/09 01:29:36;;;;;;;34.83;24.42;;;6.50;97.70;;;;;;5017426;28;20025;-72
2022/12/09 01:32:01;;;;;;;35.53;26.02;;;6.50;97.70;;;;;;5001185;28;20064;-71
2022/12/09 01:34:27;;;;;;;36.75;26.52;;;6.50;97.70;;;;;;4985239;28;20108;-72
2022/12/09 01:36:53;;;;;;;40.63;29.67;;;6.50;97.70;;;;;;5001063;28;20422;-72
2022/12/09 01:39:18;;;;;;;39.70;27.60;;;6.50;97.80;;;;;;5017414;28;20462;-72
2022/12/09 01:41:44;;;;;;;36.35;26.58;;;6.50;97.90;;;;;;5000665;28;20120;-72
2022/12/09 01:44:22;;;;;;;37.72;27.25;;;6.50;98.00;;;;;;5017308;28;20124;-72
2022/12/09 01:46:48;;;;;;;36.13;27.85;;;6.50;98.00;;;;;;5017781;28;20028;-72
2022/12/09 01:49:34;;;;;;;38.92;28.25;;;6.50;97.80;;;;;;5017051;28;20450;-72
2022/12/09 01:52:21;;;;;;;37.10;26.38;;;6.40;97.90;;;;;;5035263;28;20109;-71
2022/12/09 01:54:48;;;;;;;42.88;29.08;;;6.40;98.00;;;;;;5026102;28;20017;-71
2022/12/09 01:57:15;;;;;;;41.42;28.63;;;6.40;98.00;;;;;;5051395;28;20029;-72
2022/12/09 01:59:42;;;;;;;42.58;28.13;;;6.40;98.10;;;;;;5030188;28;20420;-72
2022/12/09 02:02:13;;;;;;;40.60;28.83;;;6.30;98.20;;;;;;5019565;28;20116;-72
2022/12/09 02:04:41;;;;;;;37.97;28.00;;;6.30;98.30;;;;;;5016942;28;20026;-72
2022/12/09 02:07:09;;;;;;;38.25;26.15;;;6.30;98.30;;;;;;5013868;28;20450;-72
2022/12/09 02:09:35;;;;;;;40.20;28.55;;;6.30;98.40;;;;;;5015179;28;20128;-72
2022/12/09 02:12:10;;;;;;;42.50;29.65;;;6.40;98.30;;;;;;5013989;28;20030;-73
2022/12/09 02:14:48;;;;;;;42.88;30.05;;;6.20;98.30;;;;;;5014720;28;20030;-72
2022/12/09 02:17:23;;;;;;;42.30;28.30;;;6.20;98.40;;;;;;5014576;28;20087;-72
2022/12/09 02:20:13;;;;;;;42.00;28.77;;;6.10;98.30;;;;;;5014156;28;20397;-72
2022/12/09 02:22:43;;;;;;;43.97;29.30;;;6.10;98.40;;;;;;5014525;28;20113;-72
2022/12/09 02:25:28;;;;;;;43.10;28.90;;;6.00;98.40;;;;;;5014422;28;20474;-72
2022/12/09 02:28:26;;;;;;;39.47;27.80;;;5.90;98.60;;;;;;5014447;28;20105;-72
2022/12/09 02:31:01;;;;;;;39.80;26.42;;;5.90;98.70;;;;;;5014592;28;20025;-72
2022/12/09 02:33:35;;;;;;;39.38;26.17;;;6.00;98.70;;;;;;5013437;28;20029;-73
2022/12/09 02:36:10;;;;;;;40.78;28.80;;;6.00;98.60;;;;;;5013259;28;20018;-72
2022/12/09 02:38:40;;;;;;;40.78;26.98;;;6.10;98.50;;;;;;5013457;28;20358;-72
2022/12/09 02:41:15;;;;;;;41.45;27.73;;;6.00;98.30;;;;;;5014334;28;20030;-73
2022/12/09 02:43:46;;;;;;;42.95;28.15;;;6.00;98.30;;;;;;5014133;28;20137;-72
2022/12/09 02:46:12;;;;;;;39.13;26.08;;;6.00;98.30;;;;;;5014327;28;20439;-72
2022/12/09 02:48:42;;;;;;;38.80;26.05;;;6.00;98.30;;;;;;5013623;28;20109;-72
2022/12/09 02:51:12;;;;;;;41.15;27.17;;;6.10;98.40;;;;;;5012700;28;20029;-72
2022/12/09 02:53:39;;;;;;;42.33;27.42;;;6.10;98.30;;;;;;5013965;28;20029;-72
2022/12/09 02:56:06;;;;;;;39.65;26.77;;;6.10;98.20;;;;;;5012452;28;20026;-72
2022/12/09 02:58:32;;;;;;;37.42;25.92;;;6.10;98.10;;;;;;5014113;28;20092;-73
2022/12/09 03:00:58;;;;;;;36.30;25.92;;;6.10;98.10;;;;;;5013533;28;20033;-72
2022/12/09 03:03:25;;;;;;;39.28;26.25;;;6.10;98.10;;;;;;5026980;28;20046;-73
2022/12/09 03:06:00;;;;;;;37.80;26.05;;;6.20;98.00;;;;;;5033426;28;20342;-72
2022/12/09 03:09:04;;;;;;;40.13;25.98;;;6.10;98.10;;;;;;5033706;28;20503;-72
2022/12/09 03:11:31;;;;;;;38.17;25.70;;;6.20;98.10;;;;;;5033396;28;20461;-72
2022/12/09 03:14:34;;;;;;;39.30;25.40;;;6.20;98.00;;;;;;5033119;28;20468;-72
2022/12/09 03:17:10;;;;;;;37.95;24.48;;;6.20;98.00;;;;;;5023752;28;20037;-72
2022/12/09 03:19:43;;;;;;;37.10;24.95;;;6.10;97.70;;;;;;5033372;28;20022;-72
2022/12/09 03:22:11;;;;;;;;;;;6.10;97.70;;;;;;5033702;28;20124;-72
2022/12/09 03:24:45;;;;;;;37.05;23.60;;;6.00;97.60;;;;;;5033455;28;19937;-72
2022/12/09 03:27:17;;;;;;;36.88;23.63;;;6.00;97.50;;;;;;5033517;28;20029;-72
2022/12/09 03:29:46;;;;;;;35.53;23.45;;;6.00;97.30;;;;;;5015765;28;20116;-71
2022/12/09 03:32:14;;;;;;;36.45;23.85;;;5.80;97.40;;;;;;5015716;28;20124;-72
2022/12/09 03:34:43;;;;;;;35.92;24.50;;;5.70;97.80;;;;;;5034375;28;20057;-72
2022/12/09 03:37:10;;;;;;;36.13;24.70;;;5.70;97.90;;;;;;5034549;28;20021;-72
2022/12/09 03:39:38;;;;;;;34.67;24.08;;;5.70;97.90;;;;;;5033270;28;20026;-72
2022/12/09 03:42:09;;;;;;;34.10;23.23;;;5.60;97.80;;;;;;5032123;28;20029;-71
2022/12/09 03:44:47;;;;;;;35.08;23.25;;;5.50;98.00;;;;;;5035426;28;20450;-72
2022/12/09 03:47:13;;;;;;;33.40;22.65;;;5.40;98.00;;;;;;5037148;28;20079;-72
2022/12/09 03:49:39;;;;;;;32.65;21.95;;;5.40;98.20;;;;;;5036168;28;20164;-71
2022/12/09 03:52:21;;;;;;;35.95;22.60;;;5.50;98.00;;;;;;5037025;28;20034;-71
2022/12/09 03:54:52;;;;;;;36.35;22.60;;;5.60;97.90;;;;;;5036717;28;20014;-71
2022/12/09 03:57:19;;;;;;;33.17;20.45;;;5.60;97.90;;;;;;5036737;28;20022;-71
2022/12/09 03:59:52;;;;;;;33.08;22.08;;;5.60;97.80;;;;;;5035786;28;20036;-71
2022/12/09 04:02:18;;;;;;;;;;;5.70;97.70;;;;;;5036935;28;20091;-71
2022/12/09 04:04:44;;;;;;;31.33;21.02;;;5.70;97.50;;;;;;5019824;28;20331;-73
2022/12/09 04:07:09;;;;;;;32.53;20.02;;;5.60;97.50;;;;;;5036505;28;20033;-72
2022/12/09 04:09:35;;;;;;;30.58;20.38;;;5.60;97.50;;;;;;5035329;28;20474;-73
2022/12/09 04:12:00;;;;;;;32.63;21.23;;;5.60;97.30;;;;;;5036322;28;20148;-73
2022/12/09 04:14:26;;;;;;;31.33;20.48;;;5.60;97.10;;;;;;5018761;28;20545;-73
2022/12/09 04:16:52;;;;;;;29.13;19.48;;;5.60;97.20;;;;;;5035291;28;20032;-73
2022/12/09 04:19:17;;;;;;;27.98;18.92;;;5.60;97.20;;;;;;5035954;28;20393;-72
2022/12/09 04:21:43;;;;;;;28.85;19.25;;;5.60;97.10;;;;;;5018673;28;20508;-73
2022/12/09 04:24:09;;;;;;;32.17;19.92;;;5.60;97.10;;;;;;5037146;28;20413;-73
2022/12/09 04:26:34;;;;;;;27.85;18.45;;;5.60;97.20;;;;;;5019319;28;20021;-73
2022/12/09 04:29:00;;;;;;;27.13;17.70;;;5.60;97.30;;;;;;5036044;28;20497;-73
2022/12/09 04:31:26;;;;;;;28.50;18.80;;;5.60;97.20;;;;;;5035875;28;20458;-72
2022/12/09 04:33:52;;;;;;;27.33;18.02;;;5.70;97.10;;;;;;5034963;28;20452;-72
2022/12/09 04:36:19;;;;;;;30.73;19.17;;;5.70;97.30;;;;;;5018515;28;20025;-72
2022/12/09 04:38:45;;;;;;;29.70;19.63;;;5.70;97.00;;;;;;5036105;28;20026;-73
2022/12/09 04:41:12;;;;;;;28.20;19.10;;;5.70;96.80;;;;;;5034904;28;20410;-72
2022/12/09 04:43:38;;;;;;;26.60;18.08;;;5.70;97.00;;;;;;5035773;28;20025;-72
2022/12/09 04:46:06;;;;;;;30.35;19.20;;;5.70;97.10;;;;;;5034662;28;20026;-73
2022/12/09 04:48:33;;;;;;;28.73;19.70;;;5.70;96.90;;;;;;5036194;28;20066;-73
2022/12/09 04:50:58;;;;;;;27.70;18.33;;;5.70;96.90;;;;;;5034591;28;20033;-72
2022/12/09 04:53:25;;;;;;;25.98;17.25;;;5.70;96.90;;;;;;5035855;28;20033;-72
2022/12/09 04:56:12;;;;;;;28.70;18.67;;;5.70;96.80;;;;;;5033434;28;20160;-73
2022/12/09 04:58:38;;;;;;;26.73;18.30;;;5.70;96.60;;;;;;5034279;28;20477;-72
2022/12/09 05:01:08;;;;;;;30.20;19.15;;;5.70;96.60;;;;;;5035887;28;20033;-72
2022/12/09 05:03:34;;;;;;;30.33;18.42;;;5.60;96.60;;;;;;5014479;28;20053;-73
2022/12/09 05:06:03;;;;;;;29.60;19.23;;;5.60;96.80;;;;;;5014646;28;20034;-73
2022/12/09 05:08:29;;;;;;;27.48;19.60;;;5.60;96.70;;;;;;5015514;28;20029;-73
2022/12/09 05:10:54;;;;;;;29.67;19.95;;;5.60;96.80;;;;;;5016912;28;20030;-74
2022/12/09 05:13:20;;;;;;;30.92;20.08;;;5.60;96.90;;;;;;5018570;28;20022;-74
2022/12/09 05:15:45;;;;;;;29.67;19.63;;;5.70;97.00;;;;;;5017501;28;20033;-73
2022/12/09 05:18:11;;;;;;;30.63;20.58;;;5.70;97.00;;;;;;5016318;28;20526;-73
2022/12/09 05:20:40;;;;;;;35.08;22.15;;;5.70;97.00;;;;;;5016634;28;20061;-74
2022/12/09 05:23:06;;;;;;;34.13;22.42;;;5.70;97.00;;;;;;5026364;28;20030;-74
2022/12/09 05:25:31;;;;;;;31.13;20.30;;;5.60;97.00;;;;;;5025319;28;20022;-73
2022/12/09 05:27:57;;;;;;;32.65;21.15;;;5.60;97.20;;;;;;5014169;28;20032;-73
2022/12/09 05:30:23;;;;;;;32.22;21.15;;;5.50;97.60;;;;;;5015442;28;20105;-73
2022/12/09 05:32:49;;;;;;;32.83;21.63;;;5.50;97.50;;;;;;5015054;28;20105;-74
2022/12/09 05:35:14;;;;;;;30.45;20.90;;;5.50;97.60;;;;;;5014108;28;20029;-73
2022/12/09 05:37:40;;;;;;;30.85;20.55;;;5.50;97.70;;;;;;5014144;28;20077;-73
2022/12/09 05:40:08;;;;;;;32.13;21.17;;;5.50;97.70;;;;;;5014237;28;20061;-75
2022/12/09 05:42:35;;;;;;;32.75;21.48;;;5.50;97.70;;;;;;5014166;28;20475;-73
2022/12/09 05:45:01;;;;;;;34.45;22.05;;;5.50;97.70;;;;;;5015280;28;20037;-73
2022/12/09 05:47:27;;;;;;;32.42;20.90;;;5.50;97.70;;;;;;4997806;28;20383;-73
2022/12/09 05:49:53;;;;;;;32.15;20.88;;;5.50;97.70;;;;;;5014668;28;20092;-73
2022/12/09 05:52:19;;;;;;;33.10;21.58;;;5.50;97.80;;;;;;5013560;28;20057;-73
2022/12/09 05:54:44;;;;;;;32.65;21.77;;;5.40;97.80;;;;;;5013666;28;20033;-73
2022/12/09 05:57:10;;;;;;;32.55;21.30;;;5.50;97.90;;;;;;5014947;28;20034;-73
2022/12/09 05:59:35;;;;;;;34.95;22.60;;;5.50;97.90;;;;;;5013590;28;20041;-73
2022/12/09 06:02:01;;;;;;;27.48;18.58;;;5.40;97.90;;;;;;5014838;28;20124;-73
2022/12/09 06:04:27;;;;;;;31.00;16.35;;;5.30;98.20;;;;;;5034684;28;20045;-73
2022/12/09 06:06:52;;;;;;;26.25;16.25;;;5.30;99.00;;;;;;5032492;28;20064;-73
2022/12/09 06:09:18;;;;;;;21.90;15.13;;;5.50;99.90;;;;;;5032965;28;20041;-73
2022/12/09 06:11:43;;;;;;;25.38;13.48;;;5.70;99.90;;;;;;5032787;28;20112;-72
2022/12/09 06:14:10;;;;;;;23.30;14.60;;;5.90;99.90;;;;;;5000529;28;20179;-73
2022/12/09 06:16:36;;;;;;;19.52;13.23;;;6.10;99.90;;;;;;5033807;28;20466;-72
2022/12/09 06:19:03;;;;;;;17.75;12.55;;;6.30;99.90;;;;;;5032709;28;20044;-73
2022/12/09 06:21:28;;;;;;;22.80;13.48;;;6.40;99.90;;;;;;5032663;28;20071;-73
2022/12/09 06:23:54;;;;;;;20.98;14.73;;;6.50;99.90;;;;;;5032476;28;20033;-72
2022/12/09 06:26:23;;;;;;;23.35;16.30;;;6.60;99.90;;;;;;5033821;28;20053;-73
2022/12/09 06:28:49;;;;;;;22.13;15.57;;;6.70;99.90;;;;;;5033597;28;20029;-72
2022/12/09 06:31:14;;;;;;;25.05;17.23;;;6.70;99.70;;;;;;5016033;28;20091;-73
2022/12/09 06:33:40;;;;;;;26.80;17.63;;;6.70;98.90;;;;;;5015896;28;20095;-73
2022/12/09 06:36:06;;;;;;;23.35;17.58;;;6.70;98.40;;;;;;5032762;28;20029;-73
2022/12/09 06:38:33;;;;;;;20.23;14.95;;;6.70;97.80;;;;;;5032873;28;20029;-72
2022/12/09 06:40:58;;;;;;;23.52;15.70;;;6.70;97.80;;;;;;5033600;28;20037;-72
2022/12/09 06:43:24;;;;;;;23.17;16.10;;;6.70;97.90;;;;;;5033868;28;20429;-74
2022/12/09 06:45:50;;;;;;;22.58;16.08;;;6.80;98.00;;;;;;5032567;28;20048;-75
2022/12/09 06:48:15;;;;;;;23.58;16.25;;;6.80;97.80;;;;;;5032401;28;20030;-74
2022/12/09 06:50:41;;;;;;;27.60;18.77;;;6.90;97.70;;;;;;5032406;28;20435;-73
2022/12/09 06:53:07;;;;;;;26.83;18.10;;;6.70;96.90;;;;;;5032692;28;20061;-75
2022/12/09 06:55:32;;;;;;;30.77;19.05;;;6.50;95.90;;;;;;5031982;28;20393;-75
2022/12/09 06:57:58;;;;;;;29.15;19.10;;;6.30;96.10;;;;;;5032869;28;20116;-74
2022/12/09 07:00:24;;;;;;;28.48;19.15;;;6.10;95.90;;;;;;5033004;28;20041;-74
2022/12/09 07:02:51;;;;;;;31.60;18.80;;;5.90;95.90;;;;;;5012250;28;20053;-74
2022/12/09 07:05:17;;;;;;;29.10;19.90;;;5.70;96.10;;;;;;5013404;28;20030;-73
2022/12/09 07:07:42;;;;;;;30.08;18.77;;;5.50;96.40;;;;;;5012477;28;20487;-74
2022/12/09 07:10:09;;;;;;;29.48;19.25;;;5.30;96.50;;;;;;5012319;28;20530;-74
2022/12/09 07:12:35;;;;;;;28.08;18.92;;;5.20;96.90;;;;;;5012208;28;20359;-73
2022/12/09 07:15:01;;;;;;;28.60;18.98;;;5.10;97.10;;;;;;5012344;28;20029;-73
2022/12/09 07:17:26;;;;;;;30.42;19.48;;;5.20;97.30;;;;;;4995642;28;20449;-73
2022/12/09 07:19:52;;;;;;;29.30;19.45;;;5.20;97.10;;;;;;5011664;28;20034;-74
2022/12/09 07:22:18;;;;;;;31.10;19.52;;;5.10;96.90;;;;;;5012008;28;20478;-75
2022/12/09 07:24:44;;;;;;;29.90;19.17;;;4.90;97.10;;;;;;4996026;28;20379;-73
2022/12/09 07:27:13;;;;;;;31.50;19.92;;;4.70;97.40;;;;;;5013595;28;20045;-74
2022/12/09 07:29:39;;;;;;;31.88;20.60;;;4.80;97.60;;;;;;5028329;28;20030;-73
2022/12/09 07:32:05;;;;;;;36.58;21.20;;;4.70;97.70;;;;;;5013744;28;20030;-71
2022/12/09 07:34:30;;;;;;;34.63;21.42;;;4.70;97.80;;;;;;5011857;28;20080;-72
2022/12/09 07:36:56;;;;;;;30.42;19.10;;;4.60;97.90;;;;;;5011755;28;20437;-72
2022/12/09 07:39:21;;;;;;;28.45;18.17;;;4.70;98.20;;;;;;4995669;28;20030;-72
2022/12/09 07:41:57;;;;;;;27.70;15.75;;;4.80;98.30;;;;;;5011965;28;20386;-72
2022/12/09 07:44:26;;;;;;;29.48;18.85;;;4.90;98.60;;;;;;5013322;28;20026;-72
2022/12/09 07:46:53;;;;;;;31.50;19.42;;;5.10;98.60;;;;;;5012044;28;20032;-72
2022/12/09 07:49:18;;;;;;;31.35;19.08;;;5.10;98.20;;;;;;5013173;28;20029;-71
2022/12/09 07:51:44;;;;;;;27.17;18.38;;;5.10;98.10;;;;;;5013198;28;20148;-73
2022/12/09 07:54:11;;;;;;;29.10;18.45;;;5.10;97.90;;;;;;5011725;28;20036;-72
2022/12/09 07:56:37;;;;;;;30.10;18.00;;;5.10;97.80;;;;;;5012170;28;20029;-73
2022/12/09 07:59:09;;;;;;;28.60;18.33;;;5.20;97.80;;;;;;5013156;28;20486;-73
2022/12/09 08:01:35;;;;;;;29.55;17.95;;;5.30;97.80;;;;;;5028098;28;20030;-70
2022/12/09 08:04:03;;;;;;;26.05;16.83;;;5.20;97.60;;;;;;5025075;28;20055;-72
2022/12/09 08:06:30;;;;;;;28.02;18.52;;;5.30;97.70;;;;;;5032490;28;20037;-72
2022/12/09 08:09:04;;;;;;;28.23;18.42;;;5.30;97.70;;;;;;5031463;28;20080;-72
2022/12/09 08:11:32;;;;;;;28.63;16.67;;;5.30;97.60;;;;;;5032983;28;20109;-72
2022/12/09 08:14:00;;;;;;;26.85;17.27;;;5.40;97.70;;;;;;5032748;28;20033;-72
2022/12/09 08:16:26;;;;;;;24.13;16.13;;;5.40;97.70;;;;;;5032984;28;20021;-72
2022/12/09 08:18:52;;;;;;;28.67;17.83;;;5.40;97.70;;;;;;5032266;28;20053;-72
2022/12/09 08:21:25;;;;;;;27.90;18.50;;;5.50;97.80;;;;;;5031253;28;20038;-71
2022/12/09 08:23:51;;;;;;;29.00;19.13;;;5.50;97.70;;;;;;5015098;28;20041;-72
2022/12/09 08:26:20;;;;;;;28.75;18.40;;;5.60;97.70;;;;;;5032606;28;20033;-71
2022/12/09 08:28:46;;;;;;;33.38;20.17;;;5.60;97.60;;;;;;5015556;28;20025;-71
2022/12/09 08:31:19;;;;;;;32.40;19.60;;;5.70;97.80;;;;;;5036168;28;20331;-72
2022/12/09 08:33:45;;;;;;;;;;;5.80;97.80;;;;;;5036039;28;20037;-73
2022/12/09 08:36:16;;;;;;;35.70;20.17;;;5.90;97.80;;;;;;5019264;28;19905;-72
2022/12/09 08:38:42;;;;;;;34.70;22.27;;;6.00;97.80;;;;;;5037519;28;20037;-72
2022/12/09 08:41:20;;;;;;;29.67;19.20;;;6.00;97.60;;;;;;5037948;28;20046;-72
2022/12/09 08:43:47;;;;;;;42.83;23.95;;;6.00;97.70;;;;;;5038870;28;20033;-71
2022/12/09 08:46:13;;;;;;;38.63;23.58;;;6.00;97.60;;;;;;5036459;28;20021;-72
2022/12/09 08:48:40;;;;;;;39.10;24.10;;;6.00;97.50;;;;;;5035287;28;20525;-71
2022/12/09 08:51:08;;;;;;;45.00;26.17;;;6.00;97.70;;;;;;5035772;28;20089;-72
2022/12/09 08:53:34;;;;;;;40.85;24.52;;;6.10;97.60;;;;;;5035845;28;20083;-73
2022/12/09 08:56:10;;;;;;;39.67;24.23;;;6.10;97.70;;;;;;5035841;28;20029;-72
2022/12/09 08:58:36;;;;;;;41.30;24.27;;;6.20;97.70;;;;;;5034552;28;20079;-71
2022/12/09 09:01:02;;;;;;;40.17;24.48;;;6.20;97.70;;;;;;5017809;28;20037;-72
2022/12/09 09:03:28;;;;;;;39.63;24.88;;;6.20;97.70;;;;;;5035640;28;20050;-72
2022/12/09 09:05:58;;;;;;;38.88;24.73;;;6.30;97.40;;;;;;5018063;28;20356;-72
2022/12/09 09:08:24;;;;;;;41.33;26.80;;;6.20;97.50;;;;;;5017972;28;20029;-73
2022/12/09 09:10:49;;;;;;;41.70;25.60;;;6.30;97.50;;;;;;5034038;28;20423;-73
2022/12/09 09:13:15;;;;;;;37.50;24.20;;;6.30;97.30;;;;;;5035456;28;20119;-72
2022/12/09 09:15:41;;;;;;;38.58;24.58;;;6.30;97.40;;;;;;5034453;28;20048;-72
2022/12/09 09:18:06;;;;;;;35.92;23.02;;;6.30;97.30;;;;;;5034311;28;20041;-73
2022/12/09 09:20:32;;;;;;;37.13;23.33;;;6.40;97.50;;;;;;5034102;28;20085;-72
2022/12/09 09:22:57;;;;;;;42.42;25.15;;;6.40;97.50;;;;;;5033856;28;20042;-73
2022/12/09 09:25:23;;;;;;;36.08;22.65;;;6.40;97.30;;;;;;5017970;28;20061;-73
2022/12/09 09:27:49;;;;;;;42.78;24.85;;;6.40;97.30;;;;;;5033705;28;20029;-73
2022/12/09 09:30:14;;;;;;;37.20;23.13;;;6.50;97.50;;;;;;5034192;28;20029;-73
2022/12/09 09:32:40;;;;;;;40.90;24.58;;;6.60;97.50;;;;;;5034108;28;20474;-72
2022/12/09 09:35:06;;;;;;;40.97;25.13;;;6.60;97.40;;;;;;5034215;28;20458;-72
2022/12/09 09:37:32;;;;;;;39.10;23.75;;;6.60;97.30;;;;;;5033609;28;20355;-72
2022/12/09 09:39:57;;;;;;;36.50;23.38;;;6.70;97.30;;;;;;5034676;28;20087;-74
2022/12/09 09:42:34;;;;;;;27.08;17.10;;;6.70;97.20;;;;;;5000623;28;20038;-72
2022/12/09 09:45:05;;;;;;;23.15;15.30;;;6.70;96.10;;;;;;5017655;28;20366;-72
2022/12/09 09:47:39;;;;;;;27.10;17.13;;;6.60;95.90;;;;;;5017362;28;20430;-73
2022/12/09 09:50:21;;;;;;;31.73;18.35;;;6.70;96.00;;;;;;5017294;28;20431;-73
2022/12/09 09:52:48;;;;;;;28.98;17.55;;;6.60;95.80;;;;;;5034981;28;20030;-74
2022/12/09 09:55:17;;;;;;;32.13;20.17;;;6.70;96.00;;;;;;5033403;28;20378;-73
2022/12/09 09:57:49;;;;;;;32.75;20.42;;;6.70;95.80;;;;;;5034644;28;20029;-73
2022/12/09 10:00:29;;;;;;;28.80;17.30;;;6.80;95.80;;;;;;5034577;28;20399;-73
2022/12/09 10:03:01;;;;;;;28.35;16.48;;;6.70;95.60;;;;;;5034583;28;20053;-74
2022/12/09 10:05:33;;;;;;;25.48;15.55;;;6.70;95.30;;;;;;5034506;28;20337;-74
2022/12/09 10:08:12;;;;;;;23.33;14.95;;;6.70;95.40;;;;;;5033926;28;20052;-73
2022/12/09 10:10:55;;;;;;;21.92;14.07;;;6.70;95.40;;;;;;5035568;28;20034;-73
2022/12/09 10:13:31;;;;;;;;;;;6.80;95.50;;;;;;5035598;28;20080;-73
2022/12/09 10:16:08;;;;;;;22.80;13.63;;;6.80;95.30;;;;;;5035600;28;19905;-74
2022/12/09 10:19:06;;;;;;;25.67;14.80;;;6.90;95.00;;;;;;5034300;28;20029;-73
2022/12/09 10:21:33;;;;;;;19.45;12.77;;;6.80;94.80;;;;;;5033421;28;20065;-73
2022/12/09 10:24:32;;;;;;;22.85;13.90;;;6.80;94.80;;;;;;5020744;28;20057;-73
2022/12/09 10:27:11;;;;;;;22.73;14.50;;;6.80;94.90;;;;;;5001291;28;20042;-74
2022/12/09 10:30:01;;;;;;;20.08;12.63;;;6.80;94.90;;;;;;5033822;28;20037;-73
2022/12/09 10:32:31;;;;;;;26.38;15.13;;;6.90;94.90;;;;;;5032622;28;20139;-73
2022/12/09 10:34:58;;;;;;;25.20;15.30;;;6.90;94.70;;;;;;5033155;28;20037;-73
2022/12/09 10:37:35;;;;;;;24.98;14.02;;;6.80;94.30;;;;;;5033754;28;20481;-74
2022/12/09 10:40:06;;;;;;;26.67;15.27;;;6.80;94.30;;;;;;5033907;28;20084;-73
2022/12/09 10:45:44;;;;;;;26.25;14.95;;;6.80;94.30;;;;;;5034112;28;20444;-73
2022/12/09 10:48:27;;;;;;;23.95;13.90;;;6.80;94.00;;;;;;5015885;28;20056;-74
2022/12/09 10:51:05;;;;;;;27.70;16.10;;;6.80;93.90;;;;;;5033849;28;20104;-73
2022/12/09 10:53:32;;;;;;;31.73;17.92;;;6.90;93.80;;;;;;5033392;28;20457;-73
2022/12/09 10:56:00;;;;;;;26.45;15.90;;;6.80;93.30;;;;;;5016041;28;20056;-74
2022/12/09 10:58:29;;;;;;;29.15;16.67;;;6.80;93.40;;;;;;5016239;28;20029;-72
2022/12/09 11:01:11;;;;;;;27.63;14.65;;;6.70;93.30;;;;;;5016104;28;20022;-72
2022/12/09 11:03:52;;;;;;;27.38;15.95;;;6.70;93.60;;;;;;5031389;28;20136;-73
2022/12/09 11:06:24;;;;;;;20.80;11.07;;;6.70;93.70;;;;;;5016140;28;20033;-73
2022/12/09 11:09:21;;;;;;;16.08;9.38;;;6.90;95.80;;;;;;5016106;28;20061;-75
2022/12/09 11:11:48;;;;;;;13.90;8.30;;;7.30;97.50;;;;;;5032361;28;20120;-74
2022/12/09 11:14:27;;;;;;;32.17;15.40;;;7.70;99.30;;;;;;5031845;28;20187;-74
2022/12/09 11:16:56;;;;;;;17.35;10.80;;;7.90;98.90;;;;;;5033108;28;20040;-74
2022/12/09 11:19:36;;;;;;;20.02;12.65;;;8.00;99.90;;;;;;5015743;28;20021;-74
2022/12/09 11:22:32;;;;;;;17.30;10.68;;;8.30;99.90;;;;;;5032987;28;20144;-74
2022/12/09 11:25:24;;;;;;;18.95;11.13;;;8.60;99.90;;;;;;5032720;28;20052;-74
2022/12/09 11:28:18;;;;;;;19.92;11.45;;;8.80;99.90;;;;;;5016184;28;20022;-74
2022/12/09 11:30:55;;;;;;;14.38;9.32;;;9.00;99.90;;;;;;4992400;28;20060;-74
2022/12/09 11:33:28;;;;;;;21.40;12.93;;;9.20;99.90;;;;;;5032325;28;20117;-73
2022/12/09 11:36:22;;;;;;;12.95;8.93;;;9.40;99.90;;;;;;5033426;28;20075;-72
2022/12/09 11:38:51;;;;;;;16.08;9.13;;;9.50;99.90;;;;;;5027701;28;20029;-73
2022/12/09 11:44:20;;;;;;;24.33;13.52;;;9.50;99.90;;;;;;5031911;28;20056;-71
2022/12/09 11:46:58;;;;;;;18.60;10.88;;;9.20;99.50;;;;;;5034878;28;20060;-73
2022/12/09 11:49:26;;;;;;;18.83;10.02;;;9.10;99.90;;;;;;5035780;28;20018;-73
2022/12/09 11:52:18;;;;;;;20.05;12.02;;;9.20;99.90;;;;;;5036275;28;20025;-72
2022/12/09 11:55:06;;;;;;;22.58;12.52;;;9.30;99.90;;;;;;5032193;28;20033;-72
2022/12/09 11:57:46;;;;;;;25.35;14.60;;;9.10;99.90;;;;;;5035379;28;20018;-72
2022/12/09 12:00:26;;;;;;;19.23;10.70;;;9.20;99.90;;;;;;5036383;28;20018;-73
2022/12/09 12:03:03;;;;;;;22.02;13.20;;;9.20;99.90;;;;;;5036498;28;20089;-73
2022/12/09 12:05:35;;;;;;;24.13;13.63;;;9.30;99.90;;;;;;5018585;28;20473;-74
2022/12/09 12:08:15;;;;;;;21.77;13.27;;;9.10;97.70;;;;;;5038308;28;20029;-72
2022/12/09 12:10:51;;;;;;;21.60;13.27;;;8.90;97.30;;;;;;5035751;28;20519;-71
2022/12/09 12:13:22;;;;;;;24.13;14.70;;;8.80;96.20;;;;;;5036795;28;20029;-71
2022/12/09 12:16:08;;;;;;;24.38;14.55;;;8.60;94.90;;;;;;5037071;28;20022;-72
2022/12/09 12:18:49;;;;;;;24.02;13.80;;;8.40;93.80;;;;;;5035971;28;20049;-72
2022/12/09 12:21:17;;;;;;;21.90;13.65;;;8.10;93.50;;;;;;5036501;28;20071;-72
2022/12/09 12:24:07;;;;;;;24.35;14.63;;;8.00;93.70;;;;;;5036406;28;20111;-72
2022/12/09 12:26:55;;;;;;;24.45;13.93;;;8.00;93.30;;;;;;5019106;28;20299;-72
2022/12/09 12:29:29;;;;;;;23.92;13.32;;;7.90;93.10;;;;;;5034869;28;20477;-72
2022/12/09 12:32:38;;;;;;;20.00;11.88;;;7.80;92.50;;;;;;5035182;28;20442;-70
2022/12/09 12:35:10;;;;;;;20.77;12.05;;;7.60;92.50;;;;;;5018327;28;20021;-71
2022/12/09 12:38:17;;;;;;;23.25;12.95;;;7.40;92.20;;;;;;5036118;28;20032;-72
2022/12/09 12:41:04;;;;;;;23.08;12.40;;;7.30;91.80;;;;;;4974656;28;20054;-71
2022/12/09 12:47:11;;;;;;;24.30;13.40;;;7.10;92.20;;;;;;5036094;28;20032;-72
2022/12/09 12:49:54;;;;;;;23.20;13.43;;;7.10;92.60;;;;;;5036313;28;20021;-72
2022/12/09 12:52:26;;;;;;;;;;;7.00;92.20;;;;;;5035877;28;20030;-73
2022/12/09 12:55:28;;;;;;;22.15;11.70;;;7.00;92.40;;;;;;5034395;28;19905;-72
2022/12/09 12:58:24;;;;;;;19.80;11.73;;;7.00;92.90;;;;;;5034261;28;20029;-71
2022/12/09 13:01:05;;;;;;;21.33;11.57;;;7.00;92.90;;;;;;5017699;28;20033;-72
2022/12/09 13:04:16;;;;;;;21.77;12.63;;;6.80;93.10;;;;;;5032498;28;20080;-71
2022/12/09 13:07:08;;;;;;;20.73;12.02;;;6.80;93.10;;;;;;5032133;28;20125;-74